sensor_id;sensor_type;location;lat;lon;timestamp;temperature;humidity
23873;DHT22;42884;50.718;4.630;2022-09-13T00:00:47;17.50;99.90
23873;DHT22;42884;50.718;4.630;2022-09-13T00:03:13;17.50;99.90
23873;DHT22;42884;50.718;4.630;2022-09-13T00:05:39;17.40;99.90
23873;DHT22;42884;50.718;4.630;2022-09-13T00:08:05;17.40;99.90
23873;DHT22;42884;50.718;4.630;2022-09-13T00:10:32;17.30;99.90
23873;DHT22;42884;50.718;4.630;2022-09-13T00:12:58;17.30;99.90
23873;DHT22;42884;50.718;4.630;2022-09-13T00:15:24;17.20;99.90
23873;DHT22;42884;50.718;4.630;2022-09-13T00:17:50;17.20;99.90
23873;DHT22;42884;50.718;4.630;2022-09-13T00:20:15;17.20;99.90
23873;DHT22;42884;50.718;4.630;2022-09-13T00:22:41;17.20;99.90
23873;DHT22;42884;50.718;4.630;2022-09-13T00:25:06;17.10;99.90
23873;DHT22;42884;50.718;4.630;2022-09-13T00:27:33;17.10;99.90
23873;DHT22;42884;50.718;4.630;2022-09-13T00:29:59;17.10;99.90
23873;DHT22;42884;50.718;4.630;2022-09-13T00:32:24;17.10;99.90
23873;DHT22;42884;50.718;4.630;2022-09-13T00:34:50;17.10;99.90
23873;DHT22;42884;50.718;4.630;2022-09-13T00:37:15;17.00;99.90
23873;DHT22;42884;50.718;4.630;2022-09-13T00:39:41;17.10;99.90
23873;DHT22;42884;50.718;4.630;2022-09-13T00:42:12;17.10;99.90
23873;DHT22;42884;50.718;4.630;2022-09-13T00:47:13;17.10;99.90
23873;DHT22;42884;50.718;4.630;2022-09-13T00:49:39;17.10;99.90
23873;DHT22;42884;50.718;4.630;2022-09-13T00:52:07;17.10;99.90
23873;DHT22;42884;50.718;4.630;2022-09-13T00:54:37;17.10;99.90
23873;DHT22;42884;50.718;4.630;2022-09-13T00:57:04;17.10;99.90
23873;DHT22;42884;50.718;4.630;2022-09-13T00:59:36;17.20;99.90
23873;DHT22;42884;50.718;4.630;2022-09-13T01:02:03;17.20;99.90
23873;DHT22;42884;50.718;4.630;2022-09-13T01:04:29;17.20;99.90
23873;DHT22;42884;50.718;4.630;2022-09-13T01:06:58;17.20;99.90
23873;DHT22;42884;50.718;4.630;2022-09-13T01:09:25;17.30;99.90
23873;DHT22;42884;50.718;4.630;2022-09-13T01:11:52;17.30;99.90
23873;DHT22;42884;50.718;4.630;2022-09-13T01:14:24;17.30;99.90
23873;DHT22;42884;50.718;4.630;2022-09-13T01:16:51;17.30;99.90
23873;DHT22;42884;50.718;4.630;2022-09-13T01:19:18;17.40;99.90
23873;DHT22;42884;50.718;4.630;2022-09-13T01:24:29;17.50;99.90
23873;DHT22;42884;50.718;4.630;2022-09-13T01:33:33;17.60;99.90
23873;DHT22;42884;50.718;4.630;2022-09-13T01:35:30;17.60;99.90
23873;DHT22;42884;50.718;4.630;2022-09-13T01:43:41;17.70;99.90
23873;DHT22;42884;50.718;4.630;2022-09-13T01:46:17;17.70;99.90
23873;DHT22;42884;50.718;4.630;2022-09-13T01:51:32;17.80;99.90
23873;DHT22;42884;50.718;4.630;2022-09-13T01:56:38;17.90;99.90
23873;DHT22;42884;50.718;4.630;2022-09-13T01:59:09;17.90;99.90
23873;DHT22;42884;50.718;4.630;2022-09-13T02:01:35;17.90;99.90
23873;DHT22;42884;50.718;4.630;2022-09-13T02:04:04;17.90;99.90
23873;DHT22;42884;50.718;4.630;2022-09-13T02:06:39;17.90;99.90
23873;DHT22;42884;50.718;4.630;2022-09-13T02:09:10;17.90;99.90
23873;DHT22;42884;50.718;4.630;2022-09-13T02:11:38;17.90;99.90
23873;DHT22;42884;50.718;4.630;2022-09-13T02:14:11;17.90;99.90
23873;DHT22;42884;50.718;4.630;2022-09-13T02:16:48;18.00;99.90
23873;DHT22;42884;50.718;4.630;2022-09-13T02:22:01;18.10;99.90
23873;DHT22;42884;50.718;4.630;2022-09-13T02:24:38;18.10;99.90
23873;DHT22;42884;50.718;4.630;2022-09-13T02:27:09;18.10;99.90
23873;DHT22;42884;50.718;4.630;2022-09-13T02:29:36;18.10;99.90
23873;DHT22;42884;50.718;4.630;2022-09-13T02:32:08;18.20;99.90
23873;DHT22;42884;50.718;4.630;2022-09-13T02:34:42;18.20;99.90
23873;DHT22;42884;50.718;4.630;2022-09-13T02:37:10;18.20;99.90
23873;DHT22;42884;50.718;4.630;2022-09-13T02:39:37;18.20;99.90
23873;DHT22;42884;50.718;4.630;2022-09-13T02:44:39;18.20;99.90
23873;DHT22;42884;50.718;4.630;2022-09-13T02:47:20;18.10;99.90
23873;DHT22;42884;50.718;4.630;2022-09-13T02:57:48;18.10;99.90
23873;DHT22;42884;50.718;4.630;2022-09-13T03:00:15;18.00;99.90
23873;DHT22;42884;50.718;4.630;2022-09-13T03:02:40;18.00;99.90
23873;DHT22;42884;50.718;4.630;2022-09-13T03:05:08;18.00;99.90
23873;DHT22;42884;50.718;4.630;2022-09-13T03:07:34;18.10;99.90
23873;DHT22;42884;50.718;4.630;2022-09-13T03:10:03;18.10;99.90
23873;DHT22;42884;50.718;4.630;2022-09-13T03:22:52;18.10;99.90
23873;DHT22;42884;50.718;4.630;2022-09-13T03:25:41;18.10;99.90
23873;DHT22;42884;50.718;4.630;2022-09-13T03:30:41;18.10;99.90
23873;DHT22;42884;50.718;4.630;2022-09-13T03:33:28;18.20;99.90
23873;DHT22;42884;50.718;4.630;2022-09-13T03:36:11;18.20;99.90
23873;DHT22;42884;50.718;4.630;2022-09-13T03:41:16;18.20;99.90
23873;DHT22;42884;50.718;4.630;2022-09-13T03:43:47;18.20;99.90
23873;DHT22;42884;50.718;4.630;2022-09-13T03:46:17;18.20;99.90
23873;DHT22;42884;50.718;4.630;2022-09-13T03:48:44;18.20;99.90
23873;DHT22;42884;50.718;4.630;2022-09-13T03:51:10;18.20;99.90
23873;DHT22;42884;50.718;4.630;2022-09-13T03:53:41;18.20;99.90
23873;DHT22;42884;50.718;4.630;2022-09-13T03:56:12;18.20;99.90
23873;DHT22;42884;50.718;4.630;2022-09-13T03:58:37;18.20;99.90
23873;DHT22;42884;50.718;4.630;2022-09-13T04:01:03;18.20;99.90
23873;DHT22;42884;50.718;4.630;2022-09-13T04:03:29;18.20;99.90
23873;DHT22;42884;50.718;4.630;2022-09-13T04:05:54;18.20;99.90
23873;DHT22;42884;50.718;4.630;2022-09-13T04:08:20;18.20;99.90
23873;DHT22;42884;50.718;4.630;2022-09-13T04:10:48;18.20;99.90
23873;DHT22;42884;50.718;4.630;2022-09-13T04:13:14;18.20;99.90
23873;DHT22;42884;50.718;4.630;2022-09-13T04:15:40;18.20;99.90
23873;DHT22;42884;50.718;4.630;2022-09-13T04:18:05;18.30;99.90
23873;DHT22;42884;50.718;4.630;2022-09-13T04:20:31;18.30;99.90
23873;DHT22;42884;50.718;4.630;2022-09-13T04:22:56;18.20;99.90
23873;DHT22;42884;50.718;4.630;2022-09-13T04:25:22;18.20;99.90
23873;DHT22;42884;50.718;4.630;2022-09-13T04:27:48;18.30;99.90
23873;DHT22;42884;50.718;4.630;2022-09-13T04:30:17;18.20;99.90
23873;DHT22;42884;50.718;4.630;2022-09-13T04:32:43;18.30;99.90
23873;DHT22;42884;50.718;4.630;2022-09-13T04:35:09;18.30;99.90
23873;DHT22;42884;50.718;4.630;2022-09-13T04:37:35;18.30;99.90
23873;DHT22;42884;50.718;4.630;2022-09-13T04:40:00;18.30;99.90
23873;DHT22;42884;50.718;4.630;2022-09-13T04:42:26;18.30;99.90
23873;DHT22;42884;50.718;4.630;2022-09-13T04:44:52;18.30;99.90
23873;DHT22;42884;50.718;4.630;2022-09-13T04:47:17;18.30;99.90
23873;DHT22;42884;50.718;4.630;2022-09-13T04:49:43;18.30;99.90
23873;DHT22;42884;50.718;4.630;2022-09-13T04:52:08;18.30;99.90
23873;DHT22;42884;50.718;4.630;2022-09-13T04:54:34;18.30;99.90
23873;DHT22;42884;50.718;4.630;2022-09-13T04:57:00;18.40;99.90
23873;DHT22;42884;50.718;4.630;2022-09-13T04:59:25;18.40;99.90
23873;DHT22;42884;50.718;4.630;2022-09-13T05:01:51;18.40;99.90
23873;DHT22;42884;50.718;4.630;2022-09-13T05:04:16;18.40;99.90
23873;DHT22;42884;50.718;4.630;2022-09-13T05:06:42;18.40;99.90
23873;DHT22;42884;50.718;4.630;2022-09-13T05:09:10;18.40;99.90
23873;DHT22;42884;50.718;4.630;2022-09-13T05:11:36;18.30;99.90
23873;DHT22;42884;50.718;4.630;2022-09-13T05:14:01;18.30;99.90
23873;DHT22;42884;50.718;4.630;2022-09-13T05:16:28;18.40;99.90
23873;DHT22;42884;50.718;4.630;2022-09-13T05:18:54;18.30;99.90
23873;DHT22;42884;50.718;4.630;2022-09-13T05:21:19;18.30;99.90
23873;DHT22;42884;50.718;4.630;2022-09-13T05:23:52;18.40;99.90
23873;DHT22;42884;50.718;4.630;2022-09-13T05:26:18;18.30;99.90
23873;DHT22;42884;50.718;4.630;2022-09-13T05:28:44;18.40;99.90
23873;DHT22;42884;50.718;4.630;2022-09-13T05:31:23;18.40;99.90
23873;DHT22;42884;50.718;4.630;2022-09-13T05:34:00;18.40;99.90
23873;DHT22;42884;50.718;4.630;2022-09-13T05:36:26;18.40;99.90
23873;DHT22;42884;50.718;4.630;2022-09-13T05:38:52;18.50;99.90
23873;DHT22;42884;50.718;4.630;2022-09-13T05:41:18;18.50;99.90
23873;DHT22;42884;50.718;4.630;2022-09-13T05:43:43;18.50;99.90
23873;DHT22;42884;50.718;4.630;2022-09-13T05:46:13;18.50;99.90
23873;DHT22;42884;50.718;4.630;2022-09-13T05:48:39;18.50;99.90
23873;DHT22;42884;50.718;4.630;2022-09-13T05:51:15;18.50;99.90
23873;DHT22;42884;50.718;4.630;2022-09-13T05:53:41;18.50;99.90
23873;DHT22;42884;50.718;4.630;2022-09-13T05:56:08;18.50;99.90
23873;DHT22;42884;50.718;4.630;2022-09-13T05:58:37;18.50;99.90
23873;DHT22;42884;50.718;4.630;2022-09-13T06:01:03;18.50;99.90
23873;DHT22;42884;50.718;4.630;2022-09-13T06:03:28;18.50;99.90
23873;DHT22;42884;50.718;4.630;2022-09-13T06:05:57;18.50;99.90
23873;DHT22;42884;50.718;4.630;2022-09-13T06:08:23;18.50;99.90
23873;DHT22;42884;50.718;4.630;2022-09-13T06:10:59;18.50;99.90
23873;DHT22;42884;50.718;4.630;2022-09-13T06:13:25;18.50;99.90
23873;DHT22;42884;50.718;4.630;2022-09-13T06:15:51;18.60;99.90
23873;DHT22;42884;50.718;4.630;2022-09-13T06:18:17;18.60;99.90
23873;DHT22;42884;50.718;4.630;2022-09-13T06:20:43;18.60;99.90
23873;DHT22;42884;50.718;4.630;2022-09-13T06:23:09;18.60;99.90
23873;DHT22;42884;50.718;4.630;2022-09-13T06:25:34;18.70;99.90
23873;DHT22;42884;50.718;4.630;2022-09-13T06:28:00;18.60;99.90
23873;DHT22;42884;50.718;4.630;2022-09-13T06:30:25;18.60;99.90
23873;DHT22;42884;50.718;4.630;2022-09-13T06:32:51;18.70;99.90
23873;DHT22;42884;50.718;4.630;2022-09-13T06:35:16;18.80;99.90
23873;DHT22;42884;50.718;4.630;2022-09-13T06:37:42;18.80;99.90
23873;DHT22;42884;50.718;4.630;2022-09-13T06:40:11;18.80;99.90
23873;DHT22;42884;50.718;4.630;2022-09-13T06:42:38;18.90;99.90
23873;DHT22;42884;50.718;4.630;2022-09-13T06:45:04;18.90;99.90
23873;DHT22;42884;50.718;4.630;2022-09-13T06:47:29;18.90;99.90
23873;DHT22;42884;50.718;4.630;2022-09-13T06:49:55;18.90;99.90
23873;DHT22;42884;50.718;4.630;2022-09-13T06:52:21;19.00;99.90
23873;DHT22;42884;50.718;4.630;2022-09-13T06:54:47;19.10;99.90
23873;DHT22;42884;50.718;4.630;2022-09-13T06:57:12;19.10;99.90
23873;DHT22;42884;50.718;4.630;2022-09-13T06:59:38;19.10;99.90
23873;DHT22;42884;50.718;4.630;2022-09-13T07:02:03;19.20;99.90
23873;DHT22;42884;50.718;4.630;2022-09-13T07:04:29;19.20;99.90
23873;DHT22;42884;50.718;4.630;2022-09-13T07:06:58;19.30;99.90
23873;DHT22;42884;50.718;4.630;2022-09-13T07:09:24;19.30;99.90
23873;DHT22;42884;50.718;4.630;2022-09-13T07:11:50;19.30;99.90
23873;DHT22;42884;50.718;4.630;2022-09-13T07:14:17;19.40;99.90
23873;DHT22;42884;50.718;4.630;2022-09-13T07:16:43;19.40;99.90
23873;DHT22;42884;50.718;4.630;2022-09-13T07:19:14;19.50;99.90
23873;DHT22;42884;50.718;4.630;2022-09-13T07:21:40;19.60;99.90
23873;DHT22;42884;50.718;4.630;2022-09-13T07:24:06;19.60;99.90
23873;DHT22;42884;50.718;4.630;2022-09-13T07:26:32;19.50;99.90
23873;DHT22;42884;50.718;4.630;2022-09-13T07:28:58;19.60;99.90
23873;DHT22;42884;50.718;4.630;2022-09-13T07:31:31;19.60;99.90
23873;DHT22;42884;50.718;4.630;2022-09-13T07:34:01;19.70;99.90
23873;DHT22;42884;50.718;4.630;2022-09-13T07:36:27;19.80;99.90
23873;DHT22;42884;50.718;4.630;2022-09-13T07:38:53;19.90;99.90
23873;DHT22;42884;50.718;4.630;2022-09-13T07:41:20;19.90;99.90
23873;DHT22;42884;50.718;4.630;2022-09-13T07:43:45;20.00;99.90
23873;DHT22;42884;50.718;4.630;2022-09-13T07:46:12;20.10;99.90
23873;DHT22;42884;50.718;4.630;2022-09-13T07:48:39;20.20;99.90
23873;DHT22;42884;50.718;4.630;2022-09-13T07:51:05;20.30;99.90
23873;DHT22;42884;50.718;4.630;2022-09-13T07:53:32;20.30;99.90
23873;DHT22;42884;50.718;4.630;2022-09-13T07:56:02;20.50;99.90
23873;DHT22;42884;50.718;4.630;2022-09-13T07:58:28;20.60;99.90
23873;DHT22;42884;50.718;4.630;2022-09-13T08:00:54;20.70;99.90
23873;DHT22;42884;50.718;4.630;2022-09-13T08:03:20;20.90;99.90
23873;DHT22;42884;50.718;4.630;2022-09-13T08:05:45;21.10;99.90
23873;DHT22;42884;50.718;4.630;2022-09-13T08:08:11;21.20;99.90
23873;DHT22;42884;50.718;4.630;2022-09-13T08:10:36;21.40;99.90
23873;DHT22;42884;50.718;4.630;2022-09-13T08:13:02;21.50;99.90
23873;DHT22;42884;50.718;4.630;2022-09-13T08:15:27;21.60;99.90
23873;DHT22;42884;50.718;4.630;2022-09-13T08:17:53;21.80;99.90
23873;DHT22;42884;50.718;4.630;2022-09-13T08:20:19;22.00;99.90
23873;DHT22;42884;50.718;4.630;2022-09-13T08:22:45;21.80;99.90
23873;DHT22;42884;50.718;4.630;2022-09-13T08:25:11;21.70;99.90
23873;DHT22;42884;50.718;4.630;2022-09-13T08:27:37;22.00;99.90
23873;DHT22;42884;50.718;4.630;2022-09-13T08:30:02;22.30;99.90
23873;DHT22;42884;50.718;4.630;2022-09-13T08:32:29;22.30;99.90
23873;DHT22;42884;50.718;4.630;2022-09-13T08:34:55;22.30;99.90
23873;DHT22;42884;50.718;4.630;2022-09-13T08:37:20;22.50;99.90
23873;DHT22;42884;50.718;4.630;2022-09-13T08:39:46;22.60;99.90
23873;DHT22;42884;50.718;4.630;2022-09-13T08:43:13;22.80;99.90
23873;DHT22;42884;50.718;4.630;2022-09-13T08:45:06;22.90;99.90
23873;DHT22;42884;50.718;4.630;2022-09-13T08:47:37;22.80;99.90
23873;DHT22;42884;50.718;4.630;2022-09-13T08:52:34;23.00;99.90
23873;DHT22;42884;50.718;4.630;2022-09-13T08:55:22;23.10;99.90
23873;DHT22;42884;50.718;4.630;2022-09-13T08:57:54;23.20;99.90
23873;DHT22;42884;50.718;4.630;2022-09-13T09:00:23;23.20;99.90
23873;DHT22;42884;50.718;4.630;2022-09-13T09:03:06;23.20;99.90
23873;DHT22;42884;50.718;4.630;2022-09-13T09:05:39;23.30;99.90
23873;DHT22;42884;50.718;4.630;2022-09-13T09:10:52;23.40;99.90
23873;DHT22;42884;50.718;4.630;2022-09-13T09:15:54;23.60;99.90
23873;DHT22;42884;50.718;4.630;2022-09-13T09:18:22;23.70;99.90
23873;DHT22;42884;50.718;4.630;2022-09-13T09:20:49;23.70;99.90
23873;DHT22;42884;50.718;4.630;2022-09-13T09:23:19;23.70;99.90
23873;DHT22;42884;50.718;4.630;2022-09-13T09:25:45;23.90;99.90
23873;DHT22;42884;50.718;4.630;2022-09-13T09:28:11;24.10;99.90
23873;DHT22;42884;50.718;4.630;2022-09-13T09:30:42;24.30;99.90
23873;DHT22;42884;50.718;4.630;2022-09-13T09:35:47;24.50;99.90
23873;DHT22;42884;50.718;4.630;2022-09-13T09:41:22;24.60;99.90
23873;DHT22;42884;50.718;4.630;2022-09-13T09:43:55;24.60;99.90
23873;DHT22;42884;50.718;4.630;2022-09-13T09:46:22;24.60;99.90
23873;DHT22;42884;50.718;4.630;2022-09-13T09:48:54;24.70;99.90
23873;DHT22;42884;50.718;4.630;2022-09-13T09:51:21;24.70;99.90
23873;DHT22;42884;50.718;4.630;2022-09-13T09:53:50;24.70;99.90
23873;DHT22;42884;50.718;4.630;2022-09-13T09:58:47;24.80;99.90
23873;DHT22;42884;50.718;4.630;2022-09-13T10:01:20;24.80;99.90
23873;DHT22;42884;50.718;4.630;2022-09-13T10:03:52;25.00;99.90
23873;DHT22;42884;50.718;4.630;2022-09-13T10:06:20;25.00;99.90
23873;DHT22;42884;50.718;4.630;2022-09-13T10:08:57;25.10;99.90
23873;DHT22;42884;50.718;4.630;2022-09-13T10:11:36;25.20;99.90
23873;DHT22;42884;50.718;4.630;2022-09-13T10:17:03;25.20;99.90
23873;DHT22;42884;50.718;4.630;2022-09-13T10:19:29;25.10;99.90
23873;DHT22;42884;50.718;4.630;2022-09-13T10:22:09;25.00;99.90
23873;DHT22;42884;50.718;4.630;2022-09-13T10:24:35;25.00;99.90
23873;DHT22;42884;50.718;4.630;2022-09-13T10:27:01;25.20;99.90
23873;DHT22;42884;50.718;4.630;2022-09-13T10:29:28;25.30;99.90
23873;DHT22;42884;50.718;4.630;2022-09-13T10:31:54;25.50;99.90
23873;DHT22;42884;50.718;4.630;2022-09-13T10:34:24;25.50;99.90
23873;DHT22;42884;50.718;4.630;2022-09-13T10:37:02;25.50;99.90
23873;DHT22;42884;50.718;4.630;2022-09-13T10:39:29;25.50;99.90
23873;DHT22;42884;50.718;4.630;2022-09-13T10:44:38;25.70;99.90
23873;DHT22;42884;50.718;4.630;2022-09-13T10:47:06;25.70;99.90
23873;DHT22;42884;50.718;4.630;2022-09-13T10:54:49;25.60;99.90
23873;DHT22;42884;50.718;4.630;2022-09-13T11:00:18;25.50;99.90
23873;DHT22;42884;50.718;4.630;2022-09-13T11:13:39;25.40;99.90
23873;DHT22;42884;50.718;4.630;2022-09-13T11:29:13;25.80;99.90
23873;DHT22;42884;50.718;4.630;2022-09-13T11:37:24;25.90;99.90
23873;DHT22;42884;50.718;4.630;2022-09-13T11:40:18;25.90;99.90
23873;DHT22;42884;50.718;4.630;2022-09-13T11:42:44;25.90;99.90
23873;DHT22;42884;50.718;4.630;2022-09-13T11:45:19;25.80;99.90
23873;DHT22;42884;50.718;4.630;2022-09-13T11:55:50;25.80;99.90
23873;DHT22;42884;50.718;4.630;2022-09-13T11:58:20;25.70;99.90
23873;DHT22;42884;50.718;4.630;2022-09-13T12:00:49;25.70;99.90
23873;DHT22;42884;50.718;4.630;2022-09-13T12:03:22;25.70;99.90
23873;DHT22;42884;50.718;4.630;2022-09-13T12:05:51;25.60;99.90
23873;DHT22;42884;50.718;4.630;2022-09-13T12:08:20;25.60;99.90
23873;DHT22;42884;50.718;4.630;2022-09-13T12:13:17;25.60;99.90
23873;DHT22;42884;50.718;4.630;2022-09-13T12:15:45;25.60;99.90
23873;DHT22;42884;50.718;4.630;2022-09-13T12:20:46;25.70;99.90
23873;DHT22;42884;50.718;4.630;2022-09-13T12:23:18;25.60;99.90
23873;DHT22;42884;50.718;4.630;2022-09-13T12:26:28;25.60;99.90
23873;DHT22;42884;50.718;4.630;2022-09-13T12:28:38;25.60;99.90
23873;DHT22;42884;50.718;4.630;2022-09-13T12:31:26;25.50;99.90
23873;DHT22;42884;50.718;4.630;2022-09-13T12:33:51;25.50;99.90
23873;DHT22;42884;50.718;4.630;2022-09-13T12:42:00;25.40;99.90
23873;DHT22;42884;50.718;4.630;2022-09-13T12:44:39;25.40;99.90
23873;DHT22;42884;50.718;4.630;2022-09-13T12:49:51;25.50;99.90
23873;DHT22;42884;50.718;4.630;2022-09-13T12:52:30;25.50;99.90
23873;DHT22;42884;50.718;4.630;2022-09-13T13:00:07;25.40;99.90
23873;DHT22;42884;50.718;4.630;2022-09-13T13:05:04;25.40;99.90
23873;DHT22;42884;50.718;4.630;2022-09-13T13:07:30;25.40;99.90
23873;DHT22;42884;50.718;4.630;2022-09-13T13:09:57;25.40;99.90
23873;DHT22;42884;50.718;4.630;2022-09-13T13:12:30;25.40;99.90
23873;DHT22;42884;50.718;4.630;2022-09-13T13:14:56;25.30;99.90
23873;DHT22;42884;50.718;4.630;2022-09-13T13:20:37;25.20;99.90
23873;DHT22;42884;50.718;4.630;2022-09-13T13:22:49;25.20;99.90
23873;DHT22;42884;50.718;4.630;2022-09-13T13:25:26;25.20;99.90
23873;DHT22;42884;50.718;4.630;2022-09-13T13:27:54;25.20;99.90
23873;DHT22;42884;50.718;4.630;2022-09-13T13:30:53;25.10;99.90
23873;DHT22;42884;50.718;4.630;2022-09-13T13:33:16;25.10;99.90
23873;DHT22;42884;50.718;4.630;2022-09-13T13:35:42;25.10;99.90
23873;DHT22;42884;50.718;4.630;2022-09-13T13:38:14;25.10;99.90
23873;DHT22;42884;50.718;4.630;2022-09-13T13:40:40;25.10;99.90
23873;DHT22;42884;50.718;4.630;2022-09-13T13:43:16;25.10;99.90
23873;DHT22;42884;50.718;4.630;2022-09-13T13:45:57;25.10;99.90
23873;DHT22;42884;50.718;4.630;2022-09-13T13:48:38;25.10;99.90
23873;DHT22;42884;50.718;4.630;2022-09-13T13:51:11;25.00;99.90
23873;DHT22;42884;50.718;4.630;2022-09-13T13:53:38;25.00;99.90
23873;DHT22;42884;50.718;4.630;2022-09-13T13:56:28;24.90;99.90
23873;DHT22;42884;50.718;4.630;2022-09-13T13:59:00;24.80;99.90
23873;DHT22;42884;50.718;4.630;2022-09-13T14:01:29;24.70;99.90
23873;DHT22;42884;50.718;4.630;2022-09-13T14:19:49;24.20;99.90
23873;DHT22;42884;50.718;4.630;2022-09-13T14:22:19;24.20;99.90
23873;DHT22;42884;50.718;4.630;2022-09-13T14:24:45;24.20;99.90
23873;DHT22;42884;50.718;4.630;2022-09-13T14:27:17;24.10;99.90
23873;DHT22;42884;50.718;4.630;2022-09-13T14:29:44;24.10;99.90
23873;DHT22;42884;50.718;4.630;2022-09-13T14:32:11;24.00;99.90
23873;DHT22;42884;50.718;4.630;2022-09-13T14:34:48;24.00;99.90
23873;DHT22;42884;50.718;4.630;2022-09-13T14:37:18;23.90;99.90
23873;DHT22;42884;50.718;4.630;2022-09-13T14:40:13;23.70;99.90
23873;DHT22;42884;50.718;4.630;2022-09-13T14:42:41;23.50;99.90
23873;DHT22;42884;50.718;4.630;2022-09-13T14:45:14;23.30;99.90
23873;DHT22;42884;50.718;4.630;2022-09-13T14:47:48;23.10;99.90
23873;DHT22;42884;50.718;4.630;2022-09-13T14:50:17;23.20;99.90
23873;DHT22;42884;50.718;4.630;2022-09-13T14:52:53;23.20;99.90
23873;DHT22;42884;50.718;4.630;2022-09-13T14:55:25;23.20;99.90
23873;DHT22;42884;50.718;4.630;2022-09-13T14:57:53;23.30;99.90
23873;DHT22;42884;50.718;4.630;2022-09-13T15:00:22;23.30;99.90
23873;DHT22;42884;50.718;4.630;2022-09-13T15:02:53;23.30;99.90
23873;DHT22;42884;50.718;4.630;2022-09-13T15:05:20;23.30;99.90
23873;DHT22;42884;50.718;4.630;2022-09-13T15:07:46;23.30;99.90
23873;DHT22;42884;50.718;4.630;2022-09-13T15:17:51;23.30;99.90
23873;DHT22;42884;50.718;4.630;2022-09-13T15:20:18;23.30;99.90
23873;DHT22;42884;50.718;4.630;2022-09-13T15:22:45;23.30;99.90
23873;DHT22;42884;50.718;4.630;2022-09-13T15:25:24;23.30;99.90
23873;DHT22;42884;50.718;4.630;2022-09-13T15:27:50;23.30;99.90
23873;DHT22;42884;50.718;4.630;2022-09-13T15:30:20;23.40;99.90
23873;DHT22;42884;50.718;4.630;2022-09-13T15:32:46;23.50;99.90
23873;DHT22;42884;50.718;4.630;2022-09-13T15:35:16;23.50;99.90
23873;DHT22;42884;50.718;4.630;2022-09-13T15:37:42;23.60;99.90
23873;DHT22;42884;50.718;4.630;2022-09-13T15:40:13;23.60;99.90
23873;DHT22;42884;50.718;4.630;2022-09-13T15:42:39;23.50;99.90
23873;DHT22;42884;50.718;4.630;2022-09-13T15:45:05;23.50;99.90
23873;DHT22;42884;50.718;4.630;2022-09-13T15:47:31;23.50;99.90
23873;DHT22;42884;50.718;4.630;2022-09-13T15:49:56;23.50;99.90
23873;DHT22;42884;50.718;4.630;2022-09-13T15:52:22;23.50;99.90
23873;DHT22;42884;50.718;4.630;2022-09-13T15:54:49;23.50;99.90
23873;DHT22;42884;50.718;4.630;2022-09-13T15:57:18;23.50;99.90
23873;DHT22;42884;50.718;4.630;2022-09-13T15:59:45;23.50;99.90
23873;DHT22;42884;50.718;4.630;2022-09-13T16:02:16;23.50;99.90
23873;DHT22;42884;50.718;4.630;2022-09-13T16:04:42;23.50;99.90
23873;DHT22;42884;50.718;4.630;2022-09-13T16:07:08;23.50;99.90
23873;DHT22;42884;50.718;4.630;2022-09-13T16:09:33;23.40;99.90
23873;DHT22;42884;50.718;4.630;2022-09-13T16:11:59;23.40;99.90
23873;DHT22;42884;50.718;4.630;2022-09-13T16:14:24;23.30;99.90
23873;DHT22;42884;50.718;4.630;2022-09-13T16:16:50;23.30;99.90
23873;DHT22;42884;50.718;4.630;2022-09-13T16:19:17;23.30;99.90
23873;DHT22;42884;50.718;4.630;2022-09-13T16:21:43;23.20;99.90
23873;DHT22;42884;50.718;4.630;2022-09-13T16:24:09;23.20;99.90
23873;DHT22;42884;50.718;4.630;2022-09-13T16:26:34;23.20;99.90
23873;DHT22;42884;50.718;4.630;2022-09-13T16:29:00;23.10;99.90
23873;DHT22;42884;50.718;4.630;2022-09-13T16:31:26;23.00;99.90
23873;DHT22;42884;50.718;4.630;2022-09-13T16:33:51;23.00;99.90
23873;DHT22;42884;50.718;4.630;2022-09-13T16:36:17;22.90;99.90
23873;DHT22;42884;50.718;4.630;2022-09-13T16:38:43;22.90;99.90
23873;DHT22;42884;50.718;4.630;2022-09-13T16:41:08;22.90;99.90
23873;DHT22;42884;50.718;4.630;2022-09-13T16:43:34;22.80;99.90
23873;DHT22;42884;50.718;4.630;2022-09-13T16:46:09;22.80;99.90
23873;DHT22;42884;50.718;4.630;2022-09-13T16:48:35;22.70;99.90
23873;DHT22;42884;50.718;4.630;2022-09-13T16:51:02;22.60;99.90
23873;DHT22;42884;50.718;4.630;2022-09-13T16:53:30;22.60;99.90
23873;DHT22;42884;50.718;4.630;2022-09-13T16:56:02;22.60;99.90
23873;DHT22;42884;50.718;4.630;2022-09-13T16:58:28;22.50;99.90
23873;DHT22;42884;50.718;4.630;2022-09-13T17:00:54;22.40;99.90
23873;DHT22;42884;50.718;4.630;2022-09-13T17:03:19;22.40;99.90
23873;DHT22;42884;50.718;4.630;2022-09-13T17:05:55;22.40;99.90
23873;DHT22;42884;50.718;4.630;2022-09-13T17:08:20;22.40;99.90
23873;DHT22;42884;50.718;4.630;2022-09-13T17:10:46;22.30;99.90
23873;DHT22;42884;50.718;4.630;2022-09-13T17:13:12;22.30;99.90
23873;DHT22;42884;50.718;4.630;2022-09-13T17:15:38;22.20;99.90
23873;DHT22;42884;50.718;4.630;2022-09-13T17:18:03;22.10;99.90
23873;DHT22;42884;50.718;4.630;2022-09-13T17:20:29;22.10;99.90
23873;DHT22;42884;50.718;4.630;2022-09-13T17:22:54;22.10;99.90
23873;DHT22;42884;50.718;4.630;2022-09-13T17:25:20;21.90;99.90
23873;DHT22;42884;50.718;4.630;2022-09-13T17:27:45;21.90;99.90
23873;DHT22;42884;50.718;4.630;2022-09-13T17:30:11;21.90;99.90
23873;DHT22;42884;50.718;4.630;2022-09-13T17:32:37;21.90;99.90
23873;DHT22;42884;50.718;4.630;2022-09-13T17:35:02;21.90;99.90
23873;DHT22;42884;50.718;4.630;2022-09-13T17:37:28;21.90;99.90
23873;DHT22;42884;50.718;4.630;2022-09-13T17:39:53;21.80;99.90
23873;DHT22;42884;50.718;4.630;2022-09-13T17:42:19;21.80;99.90
23873;DHT22;42884;50.718;4.630;2022-09-13T17:44:45;21.80;99.90
23873;DHT22;42884;50.718;4.630;2022-09-13T17:47:10;21.70;99.90
23873;DHT22;42884;50.718;4.630;2022-09-13T17:49:36;21.70;99.90
23873;DHT22;42884;50.718;4.630;2022-09-13T17:52:01;21.70;99.90
23873;DHT22;42884;50.718;4.630;2022-09-13T17:54:27;21.60;99.90
23873;DHT22;42884;50.718;4.630;2022-09-13T17:56:53;21.60;99.90
23873;DHT22;42884;50.718;4.630;2022-09-13T17:59:19;21.60;99.90
23873;DHT22;42884;50.718;4.630;2022-09-13T18:01:46;21.50;99.90
23873;DHT22;42884;50.718;4.630;2022-09-13T18:04:12;21.50;99.90
23873;DHT22;42884;50.718;4.630;2022-09-13T18:06:38;21.40;99.90
23873;DHT22;42884;50.718;4.630;2022-09-13T18:09:08;21.40;99.90
23873;DHT22;42884;50.718;4.630;2022-09-13T18:11:34;21.30;99.90
23873;DHT22;42884;50.718;4.630;2022-09-13T18:13:59;21.30;99.90
23873;DHT22;42884;50.718;4.630;2022-09-13T18:16:25;21.30;99.90
23873;DHT22;42884;50.718;4.630;2022-09-13T18:18:51;21.30;99.90
23873;DHT22;42884;50.718;4.630;2022-09-13T18:21:18;21.20;99.90
23873;DHT22;42884;50.718;4.630;2022-09-13T18:23:45;21.20;99.90